Time;durP1;ratioP1;P1;durP2;ratioP2;P2;SDS_P1;SDS_P2;PMS_P1;PMS_P2;Temp;Humidity;BMP_temperature;BMP_pressure;BME280_temperature;BME280_humidity;BME280_pressure;Samples;Min_cycle;Max_cycle;Signal;HPM_P1;HPM_P2
2024/03/22 00:00:16;;;;;;;70.78;36.20;;;256.30;2252.80;;;;;;5094913;28;20032;-74
2024/03/22 00:02:42;;;;;;;87.45;44.30;;;256.40;2252.80;;;;;;5089419;28;20063;-74
2024/03/22 00:05:08;;;;;;;102.50;45.78;;;256.20;2252.80;;;;;;5086013;28;20433;-75
2024/03/22 00:07:34;;;;;;;;;;;256.00;2252.80;;;;;;5092276;28;20047;-76
2024/03/22 00:09:59;;;;;;;91.20;39.95;;;231.30;2252.80;;;;;;5087789;28;19962;-74
2024/03/22 00:12:25;;;;;;;;;;;231.30;2252.80;;;;;;5094583;28;20374;-75
2024/03/22 00:14:54;;;;;;;91.07;44.45;;;231.20;2252.80;;;;;;5092066;28;19934;-74
2024/03/22 00:17:20;;;;;;;88.90;41.83;;;231.10;2252.80;;;;;;5099558;28;20032;-74
2024/03/22 00:19:46;;;;;;;97.57;43.83;;;256.20;2252.80;;;;;;5092372;28;20138;-74
2024/03/22 00:22:12;;;;;;;82.80;40.05;;;231.20;2252.80;;;;;;5087010;28;20040;-74
2024/03/22 00:24:37;;;;;;;;;;;231.30;2252.80;;;;;;5089171;28;20535;-74
2024/03/22 00:27:03;;;;;;;90.60;43.22;;;256.00;2252.80;;;;;;5089936;28;19943;-74
2024/03/22 00:29:29;;;;;;;;;;;231.30;2252.80;;;;;;5091891;28;20027;-74
2024/03/22 00:31:55;;;;;;;84.47;42.55;;;231.30;2252.80;;;;;;5093087;28;19978;-74
2024/03/22 00:34:20;;;;;;;;;;;231.30;2252.80;;;;;;5093289;28;20040;-74
2024/03/22 00:36:46;;;;;;;88.38;42.53;;;231.20;2252.80;;;;;;5093588;28;19957;-73
2024/03/22 00:39:12;;;;;;;;;;;231.20;2252.80;;;;;;5088528;28;20016;-74
2024/03/22 00:41:39;;;;;;;85.38;42.45;;;231.10;2252.80;;;;;;5093302;28;19912;-74
2024/03/22 00:44:04;;;;;;;93.82;46.63;;;231.10;2252.80;;;;;;5093300;28;20028;-75
2024/03/22 00:46:31;;;;;;;100.63;44.13;;;231.10;2252.80;;;;;;5093591;28;20377;-74
2024/03/22 00:48:58;;;;;;;77.20;38.38;;;231.00;2252.80;;;;;;5093360;28;20027;-74
2024/03/22 00:51:25;;;;;;;72.70;36.42;;;230.90;2252.80;;;;;;5093228;28;20024;-74
2024/03/22 00:53:51;;;;;;;68.80;36.15;;;230.80;2252.80;;;;;;5093525;28;20510;-74
2024/03/22 00:56:17;;;;;;;71.28;35.90;;;230.70;2252.80;;;;;;5093314;28;20023;-75
2024/03/22 00:58:42;;;;;;;;;;;230.70;2252.80;;;;;;5093767;28;20042;-74
2024/03/22 01:01:08;;;;;;;63.13;32.58;;;230.60;2252.80;;;;;;5093273;28;19958;-74
2024/03/22 01:03:34;;;;;;;;;;;230.60;2252.80;;;;;;5093518;28;20058;-74
2024/03/22 01:06:00;;;;;;;64.13;30.85;;;230.60;2252.80;;;;;;5093265;28;20381;-75
2024/03/22 01:08:26;;;;;;;71.13;35.80;;;230.60;2252.80;;;;;;5093244;28;20024;-73
2024/03/22 01:10:51;;;;;;;;;;;230.60;2252.80;;;;;;5093776;28;20095;-75
2024/03/22 01:13:17;;;;;;;70.57;32.63;;;230.60;2252.80;;;;;;5092665;28;19927;-74
2024/03/22 01:15:43;;;;;;;66.30;31.83;;;230.40;2252.80;;;;;;5093157;28;20020;-74
2024/03/22 01:18:09;;;;;;;63.55;30.73;;;230.40;2252.80;;;;;;5093226;28;20103;-74
2024/03/22 01:20:35;;;;;;;66.07;31.52;;;205.70;2252.80;;;;;;5093059;28;20169;-77
2024/03/22 01:23:01;;;;;;;60.75;28.88;;;205.70;2252.80;;;;;;5093040;28;20054;-74
2024/03/22 01:25:28;;;;;;;62.38;30.08;;;205.70;2252.80;;;;;;5093126;28;20031;-75
2024/03/22 01:27:54;;;;;;;62.55;30.73;;;205.70;2252.80;;;;;;5092793;28;20027;-75
2024/03/22 01:30:19;;;;;;;61.20;29.50;;;205.70;2252.80;;;;;;5091821;28;20031;-73
2024/03/22 01:32:45;;;;;;;62.03;29.05;;;205.60;2252.80;;;;;;5092995;28;20032;-73
2024/03/22 01:35:11;;;;;;;53.20;25.25;;;205.70;2252.80;;;;;;5093073;28;20020;-75
2024/03/22 01:37:37;;;;;;;;;;;205.70;2252.80;;;;;;5093296;28;20024;-74
2024/03/22 01:40:04;;;;;;;58.65;26.00;;;205.70;2252.80;;;;;;5092775;28;19908;-74
2024/03/22 01:42:30;;;;;;;52.03;24.67;;;205.70;2252.80;;;;;;5092765;28;20044;-73
2024/03/22 01:44:56;;;;;;;50.47;23.33;;;205.70;2252.80;;;;;;5094349;28;20032;-75
2024/03/22 01:47:22;;;;;;;43.88;22.00;;;205.70;2252.80;;;;;;5096860;28;20028;-73
2024/03/22 01:49:50;;;;;;;;;;;205.70;2252.80;;;;;;5097184;28;20469;-74
2024/03/22 01:52:16;;;;;;;45.03;22.08;;;205.70;2252.80;;;;;;5096550;28;20361;-75
2024/03/22 01:54:42;;;;;;;44.45;21.45;;;205.60;2252.80;;;;;;5096852;28;20103;-75
2024/03/22 01:57:08;;;;;;;40.45;21.38;;;205.60;2252.80;;;;;;5094569;28;20062;-74
2024/03/22 01:59:34;;;;;;;42.22;20.00;;;205.60;2252.80;;;;;;5096648;28;20048;-75
2024/03/22 02:02:01;;;;;;;42.40;20.50;;;205.50;2252.80;;;;;;5096493;28;20062;-75
2024/03/22 02:04:27;;;;;;;46.90;21.83;;;205.50;2252.80;;;;;;5096733;28;20099;-75
2024/03/22 02:06:52;;;;;;;43.70;20.38;;;205.50;2252.80;;;;;;5096947;28;20047;-74
2024/03/22 02:09:20;;;;;;;;;;;205.40;2252.80;;;;;;5099403;28;20481;-74
2024/03/22 02:11:47;;;;;;;52.72;21.33;;;205.30;2252.80;;;;;;5098091;28;19919;-74
2024/03/22 02:14:13;;;;;;;42.85;22.33;;;205.20;2252.80;;;;;;5096315;28;20020;-75
2024/03/22 02:16:40;;;;;;;47.45;22.60;;;205.30;2252.80;;;;;;5096529;28;20016;-74
2024/03/22 02:19:07;;;;;;;48.95;22.20;;;205.30;2252.80;;;;;;5096346;28;20050;-77
2024/03/22 02:21:33;;;;;;;47.60;21.85;;;205.40;2252.80;;;;;;5096078;28;20012;-73
2024/03/22 02:23:59;;;;;;;52.38;23.90;;;205.30;2252.80;;;;;;5096058;28;20036;-76
2024/03/22 02:26:25;;;;;;;53.97;24.20;;;205.40;2252.80;;;;;;5096346;28;20020;-75
2024/03/22 02:28:50;;;;;;;;;;;205.30;2252.80;;;;;;5096091;28;20028;-74
2024/03/22 02:31:16;;;;;;;51.42;24.35;;;205.30;2252.80;;;;;;5095948;28;20312;-75
2024/03/22 02:33:42;;;;;;;45.08;22.58;;;205.30;2252.80;;;;;;5095966;28;20020;-76
2024/03/22 02:36:09;;;;;;;;;;;205.30;2252.80;;;;;;5096413;28;20095;-75
2024/03/22 02:38:34;;;;;;;49.75;21.75;;;205.40;2252.80;;;;;;5095928;28;19962;-75
2024/03/22 02:41:00;;;;;;;;;;;205.40;2252.80;;;;;;5096235;28;20028;-74
2024/03/22 02:43:26;;;;;;;46.15;23.00;;;205.30;2252.80;;;;;;5095764;28;19919;-75
2024/03/22 02:45:52;;;;;;;;;;;205.30;2252.80;;;;;;5096205;28;20025;-74
2024/03/22 02:48:17;;;;;;;52.60;23.38;;;205.40;2252.80;;;;;;5095799;28;19911;-74
2024/03/22 02:50:43;;;;;;;56.67;26.55;;;205.30;2252.80;;;;;;5095525;28;20492;-74
2024/03/22 02:53:09;;;;;;;46.70;23.95;;;205.20;2252.80;;;;;;5095666;28;20039;-73
2024/03/22 02:55:41;;;;;;;;;;;205.10;2252.80;;;;;;5095503;28;20528;-74
2024/03/22 02:58:07;;;;;;;56.28;24.10;;;205.00;2252.80;;;;;;5095530;28;19998;-74
2024/03/22 03:00:38;;;;;;;57.10;25.15;;;205.00;2252.80;;;;;;5095372;28;20073;-73
2024/03/22 03:03:04;;;;;;;60.40;25.10;;;205.10;2252.80;;;;;;5093998;28;20032;-74
2024/03/22 03:05:30;;;;;;;61.65;25.88;;;205.10;2252.80;;;;;;5095171;28;20453;-75
2024/03/22 03:07:56;;;;;;;58.17;26.45;;;205.20;2252.80;;;;;;5095108;28;20032;-73
2024/03/22 03:10:22;;;;;;;;;;;205.20;2252.80;;;;;;5094505;28;20027;-74
2024/03/22 03:12:48;;;;;;;69.25;25.63;;;205.30;2252.80;;;;;;5094918;28;19920;-75
2024/03/22 03:15:13;;;;;;;;;;;205.30;2252.80;;;;;;5095440;28;20017;-73
2024/03/22 03:17:39;;;;;;;47.33;21.15;;;205.20;2252.80;;;;;;5095032;28;20307;-74
2024/03/22 03:20:10;;;;;;;44.47;21.38;;;205.20;2252.80;;;;;;5093473;28;20040;-74
2024/03/22 03:22:36;;;;;;;51.92;22.60;;;205.20;2252.80;;;;;;5094801;28;20032;-74
2024/03/22 03:25:04;;;;;;;43.05;20.52;;;205.20;2252.80;;;;;;5094913;28;20089;-74
2024/03/22 03:27:30;;;;;;;38.35;18.95;;;205.20;2252.80;;;;;;5094974;28;20020;-74
2024/03/22 03:29:56;;;;;;;44.53;20.65;;;205.20;2252.80;;;;;;5094672;28;20023;-76
2024/03/22 03:32:22;;;;;;;41.10;20.77;;;205.20;2252.80;;;;;;5094809;28;20028;-73
2024/03/22 03:34:47;;;;;;;;;;;205.20;2252.80;;;;;;5095175;28;20016;-74
2024/03/22 03:37:14;;;;;;;41.47;21.55;;;205.20;2252.80;;;;;;5094727;28;20251;-75
2024/03/22 03:39:40;;;;;;;45.70;23.23;;;205.20;2252.80;;;;;;5094521;28;20048;-75
2024/03/22 03:42:06;;;;;;;44.55;21.85;;;205.10;2252.80;;;;;;5094343;28;20031;-74
2024/03/22 03:44:31;;;;;;;43.28;21.52;;;205.10;2252.80;;;;;;5094507;28;20035;-75
2024/03/22 03:46:57;;;;;;;41.97;21.55;;;205.10;2252.80;;;;;;5094564;28;20025;-74
2024/03/22 03:49:23;;;;;;;44.47;22.90;;;205.10;2252.80;;;;;;5093328;28;20035;-74
2024/03/22 03:51:49;;;;;;;;;;;205.20;2252.80;;;;;;5094774;28;20020;-74
2024/03/22 03:54:14;;;;;;;37.78;18.65;;;205.20;2252.80;;;;;;5094358;28;19992;-73
2024/03/22 03:56:40;;;;;;;38.38;20.08;;;205.20;2252.80;;;;;;5094451;28;20453;-73
2024/03/22 03:59:07;;;;;;;;;;;205.20;2252.80;;;;;;5094796;28;20027;-75
2024/03/22 04:01:32;;;;;;;35.67;18.63;;;205.20;2252.80;;;;;;5092950;28;19904;-74
2024/03/22 04:03:58;;;;;;;;;;;205.10;2252.80;;;;;;5094482;28;20032;-74
2024/03/22 04:06:24;;;;;;;40.88;18.52;;;205.10;2252.80;;;;;;5091866;28;19904;-75
2024/03/22 04:08:50;;;;;;;37.10;18.85;;;205.10;2252.80;;;;;;5093442;28;20077;-74
2024/03/22 04:11:15;;;;;;;;;;;205.00;2252.80;;;;;;5094402;28;20027;-75
2024/03/22 04:13:42;;;;;;;36.08;17.90;;;204.90;2252.80;;;;;;5094014;28;19941;-74
2024/03/22 04:16:07;;;;;;;37.05;18.13;;;204.80;2252.80;;;;;;5093794;28;20052;-74
2024/03/22 04:18:33;;;;;;;;;;;204.80;2252.80;;;;;;5094497;28;20520;-74
2024/03/22 04:20:59;;;;;;;58.17;23.63;;;205.00;2252.80;;;;;;5093875;28;19904;-75
2024/03/22 04:23:26;;;;;;;42.53;19.52;;;204.80;2252.80;;;;;;5093756;28;20489;-74
2024/03/22 04:26:01;;;;;;;38.17;18.80;;;204.80;2252.80;;;;;;5093730;28;20024;-75
2024/03/22 04:28:30;;;;;;;45.63;22.80;;;204.80;2252.80;;;;;;5093692;28;20110;-74
2024/03/22 04:31:04;;;;;;;44.55;20.63;;;204.80;2252.80;;;;;;5092491;28;20028;-74
2024/03/22 04:33:31;;;;;;;37.58;19.38;;;180.10;2252.80;;;;;;5093568;28;20054;-74
2024/03/22 04:35:58;;;;;;;37.85;18.08;;;180.00;2252.80;;;;;;5093609;28;20443;-74
2024/03/22 04:38:25;;;;;;;38.20;18.40;;;180.00;2252.80;;;;;;5093662;28;20520;-75
2024/03/22 04:40:51;;;;;;;36.30;18.02;;;179.90;2252.80;;;;;;5093525;28;20016;-74
2024/03/22 04:43:18;;;;;;;33.05;17.73;;;180.00;2252.80;;;;;;5093508;28;20039;-75
2024/03/22 04:45:45;;;;;;;40.03;19.35;;;179.80;2252.80;;;;;;5091439;28;20058;-75
2024/03/22 04:48:14;;;;;;;39.80;19.05;;;179.90;2252.80;;;;;;5093445;28;20020;-75
2024/03/22 04:50:40;;;;;;;34.90;17.10;;;180.00;2252.80;;;;;;5093485;28;20347;-75
2024/03/22 04:53:06;;;;;;;38.50;19.63;;;180.00;2252.80;;;;;;5093429;28;20059;-74
2024/03/22 04:55:35;;;;;;;;;;;180.10;2252.80;;;;;;5094125;28;20049;-75
2024/03/22 04:58:01;;;;;;;38.78;18.38;;;204.80;2252.80;;;;;;5093333;28;20388;-75
2024/03/22 05:00:27;;;;;;;;;;;204.90;2252.80;;;;;;5093701;28;20024;-75
2024/03/22 05:02:53;;;;;;;38.80;18.65;;;204.90;2252.80;;;;;;5093309;28;19916;-74
2024/03/22 05:05:19;;;;;;;;;;;204.90;2252.80;;;;;;5093716;28;20035;-74
2024/03/22 05:07:45;;;;;;;42.70;20.40;;;205.10;2252.80;;;;;;5093309;28;19927;-75
2024/03/22 05:10:11;;;;;;;;;;;205.20;2252.80;;;;;;5093663;28;20074;-74
2024/03/22 05:12:37;;;;;;;41.50;20.93;;;205.10;2252.80;;;;;;5092956;28;19920;-74
2024/03/22 05:15:03;;;;;;;;;;;205.10;2252.80;;;;;;5093685;28;20610;-74
2024/03/22 05:17:31;;;;;;;44.03;21.90;;;205.20;2252.80;;;;;;5093306;28;19911;-74
2024/03/22 05:19:58;;;;;;;57.15;28.48;;;205.20;2252.80;;;;;;5096470;28;20016;-76
2024/03/22 05:22:24;;;;;;;84.10;39.15;;;205.40;2252.80;;;;;;5097438;28;20474;-75
2024/03/22 05:24:49;;;;;;;;;;;205.50;2252.80;;;;;;5097683;28;20023;-77
2024/03/22 05:27:15;;;;;;;68.45;32.47;;;205.60;2252.80;;;;;;5097332;28;19908;-74
2024/03/22 05:29:41;;;;;;;57.17;30.90;;;205.60;2252.80;;;;;;5097278;28;20397;-74
2024/03/22 05:32:07;;;;;;;;;;;230.40;2252.80;;;;;;5097363;28;20021;-75
2024/03/22 05:34:33;;;;;;;51.33;24.27;;;230.40;2252.80;;;;;;5097243;28;19904;-76
2024/03/22 05:36:58;;;;;;;;;;;230.40;2252.80;;;;;;5097533;28;20023;-75
2024/03/22 05:39:24;;;;;;;51.78;24.75;;;230.50;2252.80;;;;;;5096725;28;19907;-74
2024/03/22 05:41:50;;;;;;;;;;;230.40;2252.80;;;;;;5088069;28;20036;-75
2024/03/22 05:44:16;;;;;;;66.70;30.25;;;230.50;2252.80;;;;;;5099880;28;20376;-73
2024/03/22 05:46:41;;;;;;;;;;;230.60;2252.80;;;;;;5095431;28;20012;-74
2024/03/22 05:49:07;;;;;;;66.97;33.80;;;230.70;2252.80;;;;;;5098648;28;19947;-73
2024/03/22 05:51:33;;;;;;;55.92;29.70;;;230.60;2252.80;;;;;;5099909;28;20106;-75
2024/03/22 05:53:59;;;;;;;46.35;24.90;;;230.60;2252.80;;;;;;5091644;28;20188;-73
2024/03/22 05:56:25;;;;;;;45.83;24.23;;;230.70;2252.80;;;;;;5101287;28;20388;-73
2024/03/22 05:58:51;;;;;;;57.95;26.63;;;230.80;2252.80;;;;;;5093367;28;20108;-74
2024/03/22 06:01:16;;;;;;;56.17;28.17;;;230.80;2252.80;;;;;;5097318;28;20124;-74
2024/03/22 06:03:42;;;;;;;52.65;28.00;;;230.90;2252.80;;;;;;5089663;28;20539;-75
2024/03/22 06:06:08;;;;;;;49.78;23.38;;;230.90;2252.80;;;;;;5092171;28;20039;-75
2024/03/22 06:08:39;;;;;;;49.50;22.80;;;231.00;2252.80;;;;;;5099205;28;20024;-74
2024/03/22 06:11:07;;;;;;;45.45;23.92;;;231.00;2252.80;;;;;;5090914;28;20016;-73
2024/03/22 06:13:33;;;;;;;45.78;24.55;;;231.20;2252.80;;;;;;5101099;28;20044;-73
2024/03/22 06:15:59;;;;;;;47.78;25.90;;;231.30;2252.80;;;;;;5091207;28;20016;-73
2024/03/22 06:18:25;;;;;;;50.40;27.17;;;231.30;2252.80;;;;;;5098144;28;20719;-73
2024/03/22 06:20:54;;;;;;;52.85;29.00;;;256.10;2252.80;;;;;;5093396;28;20052;-73
2024/03/22 06:23:19;;;;;;;68.25;36.70;;;256.00;2252.80;;;;;;5088834;28;20040;-73
2024/03/22 06:25:52;;;;;;;45.85;24.60;;;231.30;2252.80;;;;;;5094452;28;20028;-77
2024/03/22 06:28:18;;;;;;;50.95;24.65;;;256.20;2252.80;;;;;;5094829;27;20024;-75
2024/03/22 06:30:44;;;;;;;45.42;24.70;;;256.30;2252.80;;;;;;5091363;28;20367;-74
2024/03/22 06:33:09;;;;;;;45.22;22.65;;;256.40;2252.80;;;;;;5095809;28;20474;-74
2024/03/22 06:35:35;;;;;;;43.38;23.85;;;256.50;2252.80;;;;;;5085562;28;20106;-75
2024/03/22 06:38:04;;;;;;;45.42;24.20;;;256.60;2201.60;;;;;;5098103;28;20116;-76
2024/03/22 06:40:30;;;;;;;48.63;26.27;;;256.80;2252.80;;;;;;5104981;28;20028;-75
2024/03/22 06:42:56;;;;;;;46.35;25.80;;;256.80;2252.80;;;;;;5093072;28;20101;-74
2024/03/22 06:45:22;;;;;;;47.55;24.98;;;256.60;2252.80;;;;;;5091573;28;20416;-74
2024/03/22 06:47:48;;;;;;;43.47;25.58;;;256.90;2252.80;;;;;;5099622;28;20028;-74
2024/03/22 06:50:13;;;;;;;;;;;281.90;2278.40;;;;;;5089905;28;20052;-75
2024/03/22 06:52:39;;;;;;;50.75;25.88;;;282.10;2278.40;;;;;;5083083;28;19966;-73
2024/03/22 06:55:06;;;;;;;;;;;282.40;2278.40;;;;;;5090196;27;20049;-74
2024/03/22 06:57:33;;;;;;;49.45;25.30;;;282.40;2278.40;;;;;;5099668;28;20330;-74
2024/03/22 07:00:00;;;;;;;46.03;25.45;;;;;;;;;;5093313;28;20024;-74
2024/03/22 07:02:26;;;;;;;51.75;26.30;;;307.60;2304.00;;;;;;5098543;28;20033;-75
2024/03/22 07:04:52;;;;;;;48.97;26.63;;;308.00;2252.80;;;;;;5082392;27;20029;-74
2024/03/22 07:07:18;;;;;;;39.47;24.48;;;332.90;2227.20;;;;;;5093333;28;20020;-72
2024/03/22 07:09:46;;;;;;;49.38;26.15;;;332.90;2227.20;;;;;;5095288;28;20030;-76
2024/03/22 07:12:12;;;;;;;54.65;26.67;;;333.30;2201.60;;;;;;5085784;28;20056;-76
2024/03/22 07:14:37;;;;;;;54.10;30.30;;;333.20;2150.40;;;;;;5095111;28;20046;-76
2024/03/22 07:17:03;;;;;;;57.75;29.95;;;333.40;2150.40;;;;;;5091577;28;20388;-74
2024/03/22 07:19:29;;;;;;;50.05;26.13;;;333.70;2099.20;;;;;;5109496;28;20019;-76
2024/03/22 07:21:55;;;;;;;48.88;25.85;;;358.50;2048.00;;;;;;5089436;28;20038;-76
2024/03/22 07:24:23;;;;;;;47.78;27.90;;;358.60;1971.20;;;;;;5081715;28;20044;-74
2024/03/22 07:26:49;;;;;;;45.22;25.83;;;358.70;1996.80;;;;;;5109197;28;20438;-74
2024/03/22 07:29:15;;;;;;;49.85;28.98;;;359.10;1971.20;;;;;;5098013;28;20024;-75
2024/03/22 07:31:41;;;;;;;45.35;26.45;;;359.20;1920.00;;;;;;5086458;28;20082;-76
2024/03/22 07:34:07;;;;;;;48.90;25.67;;;359.30;1868.80;;;;;;5095183;28;20035;-77
2024/03/22 07:36:38;;;;;;;47.15;26.20;;;384.10;1868.80;;;;;;5093546;28;20027;-76
2024/03/22 07:39:06;;;;;;;50.00;26.02;;;384.30;1817.60;;;;;;5107277;28;20024;-75
2024/03/22 07:41:32;;;;;;;47.45;25.10;;;384.50;1792.00;;;;;;5084515;28;20037;-77
2024/03/22 07:44:00;;;;;;;42.70;25.75;;;384.40;1766.40;;;;;;5093571;28;20096;-77
2024/03/22 07:46:26;;;;;;;47.40;23.33;;;384.70;1792.00;;;;;;5089538;28;20069;-77
2024/03/22 07:48:52;;;;;;;41.97;26.13;;;384.40;1715.20;;;;;;5088522;28;20031;-77
2024/03/22 07:51:19;;;;;;;40.55;22.65;;;384.40;1740.80;;;;;;5080852;28;20024;-78
2024/03/22 07:53:45;;;;;;;40.22;21.60;;;384.30;1715.20;;;;;;5088349;28;20035;-76
2024/03/22 07:56:12;;;;;;;37.28;21.77;;;384.70;1638.40;;;;;;5099229;28;20022;-74
2024/03/22 07:58:39;;;;;;;40.83;21.67;;;409.70;1638.40;;;;;;5084290;28;20063;-75
2024/03/22 08:01:05;;;;;;;42.72;21.20;;;409.70;1664.00;;;;;;5083575;28;20051;-75
2024/03/22 08:03:31;;;;;;;35.72;22.65;;;409.70;1612.80;;;;;;5082265;28;20096;-76
2024/03/22 08:05:57;;;;;;;42.60;21.50;;;409.90;1945.60;;;;;;5085353;28;20478;-75
2024/03/22 08:08:22;;;;;;;43.53;22.83;;;410.20;1587.20;;;;;;5097326;28;20032;-75
2024/03/22 08:10:48;;;;;;;34.92;22.23;;;410.00;1612.80;;;;;;5086604;28;20045;-76
2024/03/22 08:13:14;;;;;;;44.03;23.42;;;435.20;1587.20;;;;;;5096456;28;20082;-75
2024/03/22 08:15:43;;;;;;;38.65;22.17;;;410.40;1561.60;;;;;;5096376;28;20504;-76
2024/03/22 08:18:09;;;;;;;44.00;22.88;;;435.30;1612.80;;;;;;5089826;28;20047;-75
2024/03/22 08:20:35;;;;;;;47.88;23.23;;;435.40;1638.40;;;;;;5100833;28;20370;-76
2024/03/22 08:23:01;;;;;;;39.58;23.73;;;435.50;1612.80;;;;;;5094653;28;20029;-77
2024/03/22 08:25:26;;;;;;;40.63;22.42;;;435.40;1612.80;;;;;;5094640;28;20489;-75
2024/03/22 08:27:55;;;;;;;45.50;23.00;;;435.70;1561.60;;;;;;5092636;28;20378;-74
2024/03/22 08:30:21;;;;;;;41.55;23.58;;;435.50;1536.00;;;;;;5083607;28;20032;-76
2024/03/22 08:32:47;;;;;;;39.60;24.60;;;435.40;1561.60;;;;;;5091981;28;20023;-75
2024/03/22 08:35:13;;;;;;;37.05;21.17;;;435.20;1536.00;;;;;;5081979;28;20066;-76
2024/03/22 08:37:39;;;;;;;37.83;20.15;;;410.30;1536.00;;;;;;5101332;28;20496;-75
2024/03/22 08:40:06;;;;;;;38.17;20.65;;;410.30;1536.00;;;;;;5097438;28;20055;-77
2024/03/22 08:42:32;;;;;;;37.58;20.30;;;410.10;1587.20;;;;;;5090380;28;20031;-75
2024/03/22 08:44:58;;;;;;;37.67;20.88;;;410.10;1561.60;;;;;;5090599;28;20016;-75
2024/03/22 08:47:24;;;;;;;36.72;19.95;;;410.20;1587.20;;;;;;5097000;28;20028;-76
2024/03/22 08:49:50;;;;;;;38.42;21.65;;;410.10;1612.80;;;;;;5089300;28;20020;-74
2024/03/22 08:52:16;;;;;;;37.33;20.20;;;410.00;1612.80;;;;;;5098666;28;20019;-74
2024/03/22 08:54:41;;;;;;;38.83;21.95;;;410.00;1587.20;;;;;;5084241;28;20033;-74
2024/03/22 08:57:07;;;;;;;33.25;19.15;;;409.90;1587.20;;;;;;5088704;28;20123;-74
2024/03/22 08:59:33;;;;;;;39.30;20.27;;;409.90;1561.60;;;;;;5090887;28;20157;-75
2024/03/22 09:02:02;;;;;;;34.88;18.63;;;409.90;1561.60;;;;;;5084854;28;20380;-75
2024/03/22 09:04:27;;;;;;;31.60;18.55;;;410.00;1561.60;;;;;;5089439;28;20036;-75
2024/03/22 09:06:54;;;;;;;34.72;19.83;;;410.10;1536.00;;;;;;5088296;28;20011;-75
2024/03/22 09:09:20;;;;;;;39.95;21.90;;;410.10;1561.60;;;;;;5093937;28;20051;-78
2024/03/22 09:11:45;;;;;;;34.00;20.27;;;410.30;1587.20;;;;;;5088562;28;20059;-75
2024/03/22 09:14:13;;;;;;;40.65;21.05;;;410.30;1536.00;;;;;;5085833;28;20058;-75
2024/03/22 09:16:40;;;;;;;33.05;18.67;;;410.30;1536.00;;;;;;5090105;28;20400;-76
2024/03/22 09:19:06;;;;;;;35.40;20.42;;;435.20;1536.00;;;;;;5099110;28;20024;-75
2024/03/22 09:21:32;;;;;;;37.85;21.60;;;435.20;1536.00;;;;;;5086876;28;20465;-75
2024/03/22 09:23:58;;;;;;;34.15;19.92;;;435.50;1536.00;;;;;;5091593;28;20081;-75
2024/03/22 09:26:24;;;;;;;33.20;20.73;;;460.80;1510.40;;;;;;5104907;28;20020;-74
2024/03/22 09:28:50;;;;;;;34.03;19.33;;;461.20;1459.20;;;;;;5084081;28;20127;-73
2024/03/22 09:31:16;;;;;;;32.17;17.98;;;461.20;1484.80;;;;;;5081384;28;20028;-73
2024/03/22 09:33:42;;;;;;;32.17;18.20;;;461.30;1484.80;;;;;;5093211;28;20080;-75
2024/03/22 09:36:09;;;;;;;29.90;17.77;;;461.60;1459.20;;;;;;5090566;28;20039;-75
2024/03/22 09:38:34;;;;;;;35.35;21.77;;;486.50;1382.40;;;;;;5099582;28;20036;-75
2024/03/22 09:41:01;;;;;;;30.45;18.65;;;487.00;1356.80;;;;;;5089321;28;20024;-75
2024/03/22 09:43:32;;;;;;;28.88;16.25;;;487.30;1331.20;;;;;;5088809;28;20052;-74
2024/03/22 09:45:58;;;;;;;25.85;14.85;;;512.20;1305.60;;;;;;5088580;28;20487;-75
2024/03/22 09:48:25;;;;;;;28.45;16.80;;;512.70;1254.40;;;;;;5088020;28;20115;-76
2024/03/22 09:50:51;;;;;;;26.85;15.55;;;512.60;1228.80;;;;;;5087914;28;20023;-74
2024/03/22 09:53:19;;;;;;;22.65;13.75;;;537.60;1254.40;;;;;;5085214;28;20168;-75
2024/03/22 09:55:49;;;;;;;24.27;11.48;;;537.70;1228.80;;;;;;5089713;28;20377;-78
2024/03/22 09:58:19;;;;;;;23.25;14.25;;;538.00;1177.60;;;;;;5100860;28;20035;-76
2024/03/22 10:00:45;;;;;;;24.38;13.98;;;538.40;1203.20;;;;;;5088696;28;20456;-76
2024/03/22 10:03:11;;;;;;;21.73;13.30;;;538.30;1177.60;;;;;;5085122;28;20093;-76
2024/03/22 10:05:37;;;;;;;19.60;11.57;;;538.50;1126.40;;;;;;5095121;28;20051;-76
2024/03/22 10:08:05;;;;;;;20.95;11.25;;;538.50;1152.00;;;;;;5084552;28;20032;-77
2024/03/22 10:10:32;;;;;;;22.13;12.50;;;563.50;1177.60;;;;;;5090007;28;20109;-75
2024/03/22 10:13:01;;;;;;;19.73;11.75;;;538.30;1126.40;;;;;;5083349;28;20051;-75
2024/03/22 10:15:27;;;;;;;21.45;11.35;;;538.20;1152.00;;;;;;5091633;28;20036;-75
2024/03/22 10:17:56;;;;;;;17.27;10.98;;;538.20;1126.40;;;;;;5088261;28;20028;-77
2024/03/22 10:20:22;;;;;;;19.00;11.32;;;538.20;1126.40;;;;;;5092626;28;20409;-77
2024/03/22 10:22:58;;;;;;;22.05;11.20;;;538.20;1152.00;;;;;;5084590;28;20130;-76
2024/03/22 10:25:27;;;;;;;20.50;10.88;;;538.30;1100.80;;;;;;5092299;28;20024;-76
2024/03/22 10:27:57;;;;;;;20.65;11.10;;;563.30;1126.40;;;;;;5101791;28;20036;-78
2024/03/22 10:30:24;;;;;;;17.38;10.73;;;563.60;1126.40;;;;;;5091055;28;20024;-75
2024/03/22 10:32:50;;;;;;;21.50;11.07;;;563.70;1049.60;;;;;;5081066;28;20044;-76
2024/03/22 10:35:16;;;;;;;16.88;9.93;;;538.50;1100.80;;;;;;5097059;28;20033;-76
2024/03/22 10:37:43;;;;;;;20.02;9.75;;;538.50;1049.60;;;;;;5091682;28;20066;-76
2024/03/22 10:40:10;;;;;;;16.13;9.75;;;538.50;1049.60;;;;;;5084548;28;20056;-78
2024/03/22 10:42:37;;;;;;;19.17;9.15;;;563.20;1049.60;;;;;;5099791;28;20040;-76
2024/03/22 10:45:08;;;;;;;17.00;9.90;;;538.40;1075.20;;;;;;5082221;28;20106;-75
2024/03/22 10:47:36;;;;;;;15.68;10.20;;;538.40;1024.00;;;;;;5084418;28;20051;-75
2024/03/22 10:50:10;;;;;;;19.73;10.70;;;538.30;1075.20;;;;;;5098604;28;20028;-76
2024/03/22 10:53:01;;;;;;;19.85;11.80;;;538.20;1075.20;;;;;;5092263;28;20024;-77
2024/03/22 10:55:35;;;;;;;17.60;11.23;;;538.10;1075.20;;;;;;5033216;28;20038;-77
2024/03/22 10:58:01;;;;;;;19.10;10.43;;;537.80;1100.80;;;;;;5022682;28;20041;-77
2024/03/22 11:00:28;;;;;;;20.50;11.77;;;538.40;1049.60;;;;;;5014555;28;20037;-76
2024/03/22 11:02:54;;;;;;;18.73;11.90;;;538.50;1075.20;;;;;;5040921;28;20494;-79
2024/03/22 11:05:20;;;;;;;21.65;12.02;;;563.20;1126.40;;;;;;5029542;28;20033;-78
2024/03/22 11:07:46;;;;;;;19.10;10.55;;;538.40;1075.20;;;;;;5018382;28;20117;-78
2024/03/22 11:10:12;;;;;;;19.85;11.02;;;563.40;1126.40;;;;;;5034452;28;20021;-78
2024/03/22 11:12:40;;;;;;;17.42;10.80;;;564.00;1126.40;;;;;;5022140;28;20079;-77
2024/03/22 11:15:06;;;;;;;18.73;10.43;;;563.70;1100.80;;;;;;5047680;28;20167;-77
2024/03/22 11:17:32;;;;;;;16.30;10.40;;;563.80;1100.80;;;;;;5017472;28;20034;-78
2024/03/22 11:19:58;;;;;;;19.73;10.95;;;589.00;1049.60;;;;;;5023597;28;20562;-77
2024/03/22 11:22:26;;;;;;;17.42;10.73;;;588.90;1075.20;;;;;;5055965;28;20048;-78
2024/03/22 11:24:52;;;;;;;15.93;10.40;;;563.90;1075.20;;;;;;5054723;28;20027;-77
2024/03/22 11:27:18;;;;;;;18.55;10.20;;;563.90;1100.80;;;;;;5028604;28;20022;-75
2024/03/22 11:29:46;;;;;;;18.90;10.38;;;588.90;1100.80;;;;;;5036810;28;20447;-75
2024/03/22 11:32:12;;;;;;;17.02;9.70;;;588.90;1075.20;;;;;;5043625;28;20044;-78
2024/03/22 11:34:39;;;;;;;17.60;10.25;;;589.00;1049.60;;;;;;5084307;28;20024;-78
2024/03/22 11:37:10;;;;;;;17.52;9.65;;;563.90;1075.20;;;;;;5100760;28;20053;-78
2024/03/22 11:39:39;;;;;;;19.67;10.68;;;563.70;1126.40;;;;;;5108265;28;20020;-78
2024/03/22 11:42:07;;;;;;;18.30;9.88;;;563.70;1075.20;;;;;;5096218;28;20943;-78
2024/03/22 11:44:35;;;;;;;17.48;10.55;;;563.50;1126.40;;;;;;5085158;28;20032;-77
2024/03/22 11:47:01;;;;;;;19.13;10.02;;;563.40;1126.40;;;;;;5084495;28;20041;-75
2024/03/22 11:49:27;;;;;;;16.80;10.05;;;538.40;1100.80;;;;;;5096161;28;20016;-76
2024/03/22 11:51:53;;;;;;;16.92;9.60;;;538.30;1100.80;;;;;;5091998;28;20019;-75
2024/03/22 11:54:22;;;;;;;15.55;9.63;;;538.00;1126.40;;;;;;5082537;28;20036;-77
2024/03/22 11:56:47;;;;;;;21.95;12.18;;;537.60;1152.00;;;;;;5094492;28;20024;-76
2024/03/22 11:59:13;;;;;;;18.50;11.23;;;512.90;1126.40;;;;;;5100293;28;20031;-75
2024/03/22 12:01:41;;;;;;;16.85;11.10;;;512.50;1126.40;;;;;;5094676;28;20028;-75
2024/03/22 12:04:07;;;;;;;18.77;11.43;;;512.40;1152.00;;;;;;5092712;28;20063;-78
2024/03/22 12:06:36;;;;;;;19.67;11.60;;;512.70;1152.00;;;;;;5085541;28;20055;-76